Time;durP1;ratioP1;P1;durP2;ratioP2;P2;SDS_P1;SDS_P2;PMS_P1;PMS_P2;Temp;Humidity;BMP_temperature;BMP_pressure;BME280_temperature;BME280_humidity;BME280_pressure;Samples;Min_cycle;Max_cycle;Signal;HPM_P1;HPM_P2
2022/06/21 00:01:08;;;;;;;7.32;1.80;;;11.80;99.90;;;;;;5056617;28;20089;-82
2022/06/21 00:03:34;;;;;;;8.80;2.80;;;11.90;99.90;;;;;;5055679;28;20124;-82
2022/06/21 00:05:59;;;;;;;10.13;1.83;;;11.90;99.90;;;;;;5039582;28;20126;-82
2022/06/21 00:08:35;;;;;;;9.27;2.05;;;11.90;99.90;;;;;;5055910;28;20041;-83
2022/06/21 00:11:01;;;;;;;8.25;1.98;;;11.90;99.90;;;;;;5055344;28;20194;-83
2022/06/21 00:13:33;;;;;;;6.18;1.98;;;11.90;99.90;;;;;;5055299;28;20044;-82
2022/06/21 00:16:06;;;;;;;7.72;1.90;;;11.90;99.90;;;;;;5039146;28;20044;-82
2022/06/21 00:18:35;;;;;;;5.68;1.70;;;11.80;99.90;;;;;;5056066;28;20075;-82
2022/06/21 00:21:01;;;;;;;7.65;2.05;;;11.80;99.90;;;;;;5055543;28;20037;-82
2022/06/21 00:23:30;;;;;;;9.00;2.10;;;11.70;99.90;;;;;;5039015;28;20090;-83
2022/06/21 00:25:57;;;;;;;7.05;2.00;;;11.70;99.90;;;;;;5039239;28;20040;-82
2022/06/21 00:28:23;;;;;;;11.88;3.17;;;11.60;99.90;;;;;;5054652;28;20119;-82
2022/06/21 00:30:50;;;;;;;8.23;1.98;;;11.70;99.90;;;;;;5039273;28;20132;-83
2022/06/21 00:33:19;;;;;;;7.38;2.00;;;11.60;99.90;;;;;;5038814;28;20051;-82
2022/06/21 00:35:47;;;;;;;10.00;2.40;;;11.50;99.90;;;;;;5055017;28;20043;-82
2022/06/21 00:38:15;;;;;;;10.25;2.40;;;11.50;99.90;;;;;;5038872;28;20032;-83
2022/06/21 00:40:41;;;;;;;11.05;2.83;;;11.50;99.90;;;;;;5038468;28;20123;-83
2022/06/21 00:43:20;;;;;;;7.95;2.55;;;11.50;99.90;;;;;;5039326;28;20154;-82
2022/06/21 00:45:48;;;;;;;7.60;2.35;;;11.50;99.90;;;;;;5038485;28;20078;-82
2022/06/21 00:48:24;;;;;;;9.15;2.13;;;11.40;99.90;;;;;;5038507;28;20047;-82
2022/06/21 00:51:14;;;;;;;7.00;2.10;;;11.40;99.90;;;;;;5055717;28;20048;-82
2022/06/21 00:54:19;;;;;;;8.20;1.77;;;11.40;99.90;;;;;;5037701;28;20049;-82
2022/06/21 00:57:10;;;;;;;8.02;1.95;;;11.40;99.90;;;;;;5055359;28;20528;-83
2022/06/21 00:59:38;;;;;;;3.97;1.08;;;11.30;99.90;;;;;;5054265;28;20098;-82
2022/06/21 01:02:16;;;;;;;50.15;3.80;;;11.30;99.90;;;;;;5055491;28;20072;-82
2022/06/21 01:04:47;;;;;;;1.85;0.90;;;11.30;99.90;;;;;;5055207;28;20505;-82
2022/06/21 01:07:13;;;;;;;27.73;2.92;;;11.20;99.90;;;;;;5037868;28;20136;-82
2022/06/21 01:09:59;;;;;;;7.63;1.63;;;11.00;99.90;;;;;;5054483;28;20044;-82
2022/06/21 01:12:25;;;;;;;27.50;2.78;;;10.90;99.90;;;;;;5027717;28;20052;-81
2022/06/21 01:15:13;;;;;;;5.50;1.70;;;10.80;99.90;;;;;;5055030;28;20049;-82
2022/06/21 01:17:39;;;;;;;6.75;1.80;;;10.80;99.90;;;;;;5037306;28;20032;-82
2022/06/21 01:20:11;;;;;;;8.93;2.38;;;10.70;99.90;;;;;;5054472;28;20048;-81
2022/06/21 01:23:03;;;;;;;5.10;1.83;;;10.70;99.90;;;;;;5054702;28;20128;-82
2022/06/21 01:25:49;;;;;;;6.03;2.08;;;10.70;99.90;;;;;;5054492;28;20067;-82
2022/06/21 01:28:16;;;;;;;10.70;3.10;;;10.80;99.90;;;;;;5054307;28;20581;-82
2022/06/21 01:30:44;;;;;;;7.85;2.30;;;10.80;99.90;;;;;;5054238;28;20041;-82
2022/06/21 01:33:16;;;;;;;8.32;2.22;;;10.80;99.90;;;;;;5055011;28;20032;-81
2022/06/21 01:35:52;;;;;;;9.35;2.20;;;10.90;99.90;;;;;;5054031;28;20454;-82
2022/06/21 01:38:28;;;;;;;8.13;2.50;;;10.80;99.90;;;;;;5037518;28;20094;-81
2022/06/21 01:41:00;;;;;;;9.20;2.63;;;10.90;99.90;;;;;;5054136;28;20079;-82
2022/06/21 01:43:28;;;;;;;25.25;3.92;;;10.90;99.90;;;;;;5054688;28;20048;-82
2022/06/21 01:46:08;;;;;;;143.38;8.35;;;10.80;99.90;;;;;;5037477;28;20041;-81
2022/06/21 01:48:38;;;;;;;105.90;7.13;;;10.80;99.90;;;;;;5053419;28;20052;-82
2022/06/21 01:51:09;;;;;;;23.33;3.55;;;10.70;99.90;;;;;;5053777;28;20036;-82
2022/06/21 01:53:36;;;;;;;9.75;2.40;;;10.60;99.90;;;;;;5054096;28;20052;-82
2022/06/21 01:56:16;;;;;;;55.45;4.13;;;10.60;99.90;;;;;;5053975;28;20036;-82
2022/06/21 01:58:49;;;;;;;13.30;1.95;;;10.40;99.90;;;;;;5053862;28;20047;-82
2022/06/21 02:01:17;;;;;;;23.88;3.00;;;10.30;99.90;;;;;;5053175;28;20033;-82
2022/06/21 02:03:45;;;;;;;14.55;2.25;;;10.10;99.90;;;;;;5038004;28;20032;-82
2022/06/21 02:06:14;;;;;;;8.05;1.80;;;10.10;99.90;;;;;;5054344;28;20044;-82
2022/06/21 02:08:48;;;;;;;5.07;1.70;;;10.00;99.90;;;;;;5052815;28;20040;-82
2022/06/21 02:11:26;;;;;;;3.78;1.70;;;10.00;99.90;;;;;;5053793;28;20044;-82
2022/06/21 02:16:43;;;;;;;9.10;2.67;;;10.00;99.90;;;;;;5053762;28;20052;-82
2022/06/21 02:19:27;;;;;;;26.67;3.83;;;10.00;99.90;;;;;;5052982;28;20038;-82
2022/06/21 02:21:53;;;;;;;6.18;2.20;;;10.00;99.90;;;;;;5037255;28;20125;-82
2022/06/21 02:24:23;;;;;;;6.18;2.35;;;10.00;99.90;;;;;;5053937;28;20502;-82
2022/06/21 02:26:52;;;;;;;28.75;4.38;;;10.00;99.90;;;;;;5036473;28;20609;-82
2022/06/21 02:29:18;;;;;;;6.90;3.13;;;10.00;99.90;;;;;;5053105;28;20485;-82
2022/06/21 02:31:46;;;;;;;7.70;2.75;;;10.10;99.90;;;;;;5037371;28;20854;-82
2022/06/21 02:34:29;;;;;;;7.40;2.70;;;10.10;99.90;;;;;;5036202;28;20040;-81
2022/06/21 02:36:59;;;;;;;6.78;2.13;;;10.10;99.90;;;;;;5053348;28;20032;-82
2022/06/21 02:39:27;;;;;;;9.88;3.22;;;10.10;99.90;;;;;;5052429;28;20047;-82
2022/06/21 02:42:01;;;;;;;7.40;2.75;;;10.10;99.90;;;;;;5053455;28;20033;-82
2022/06/21 02:44:42;;;;;;;9.48;2.85;;;10.10;99.90;;;;;;5036050;28;20068;-82
2022/06/21 02:47:22;;;;;;;10.43;3.05;;;10.10;99.90;;;;;;5053191;28;20028;-82
2022/06/21 02:50:05;;;;;;;7.70;2.67;;;10.10;99.90;;;;;;5036327;28;20036;-82
2022/06/21 02:52:36;;;;;;;8.18;2.75;;;10.10;99.90;;;;;;5061701;28;20047;-81
2022/06/21 02:55:31;;;;;;;10.98;2.00;;;10.10;99.90;;;;;;5036586;28;20055;-82
2022/06/21 02:58:25;;;;;;;48.33;5.80;;;10.00;99.90;;;;;;5052164;28;20135;-81
2022/06/21 03:00:52;;;;;;;60.90;5.88;;;9.90;99.90;;;;;;5051876;28;20517;-82
2022/06/21 03:03:25;;;;;;;38.65;3.78;;;9.80;99.90;;;;;;5052735;28;20043;-81
2022/06/21 03:05:52;;;;;;;;;;;9.80;99.90;;;;;;5037004;28;20076;-82
2022/06/21 03:08:18;;;;;;;21.05;3.53;;;9.70;99.90;;;;;;5052200;28;19920;-82
2022/06/21 03:10:47;;;;;;;13.60;2.90;;;9.60;99.90;;;;;;5052282;28;20074;-82
2022/06/21 03:13:35;;;;;;;10.20;2.70;;;9.50;99.90;;;;;;5053164;28;20036;-82
2022/06/21 03:16:05;;;;;;;7.88;2.20;;;9.40;99.90;;;;;;5027470;28;20045;-82
2022/06/21 03:18:39;;;;;;;6.32;2.30;;;9.50;99.90;;;;;;5036696;28;20036;-81
2022/06/21 03:21:05;;;;;;;5.35;2.35;;;9.50;99.90;;;;;;5052249;28;20120;-82
2022/06/21 03:23:32;;;;;;;7.93;2.85;;;9.50;99.90;;;;;;5052499;28;20462;-82
2022/06/21 03:26:01;;;;;;;5.72;2.63;;;9.60;99.90;;;;;;5053049;28;20135;-82
2022/06/21 03:28:31;;;;;;;6.75;2.72;;;9.60;99.90;;;;;;5052225;28;20057;-82
2022/06/21 03:31:16;;;;;;;8.48;3.75;;;9.60;99.90;;;;;;5052109;28;20048;-82
2022/06/21 03:33:46;;;;;;;6.43;2.65;;;9.60;99.90;;;;;;5035019;28;20070;-82
2022/06/21 03:36:15;;;;;;;9.27;3.20;;;9.70;99.90;;;;;;5052272;28;20044;-82
2022/06/21 03:38:44;;;;;;;9.40;3.10;;;9.70;99.90;;;;;;5036188;28;20040;-82
2022/06/21 03:44:01;;;;;;;7.30;2.70;;;9.70;99.90;;;;;;5052756;28;20044;-81
2022/06/21 03:46:35;;;;;;;43.63;4.03;;;9.70;99.90;;;;;;5036298;28;20119;-81
2022/06/21 03:49:17;;;;;;;10.88;2.92;;;9.60;99.90;;;;;;5051835;28;20091;-82
2022/06/21 03:51:46;;;;;;;112.07;6.10;;;9.60;99.90;;;;;;5035273;28;20082;-82
2022/06/21 03:54:26;;;;;;;70.97;7.18;;;9.40;99.90;;;;;;5053014;28;20410;-82
2022/06/21 03:57:01;;;;;;;5.38;2.03;;;9.30;99.90;;;;;;5051822;28;20485;-82
2022/06/21 03:59:55;;;;;;;45.28;4.05;;;9.20;99.90;;;;;;5035203;28;20045;-82
2022/06/21 04:02:40;;;;;;;;;;;9.20;99.90;;;;;;5052525;28;20051;-81
2022/06/21 04:05:14;;;;;;;12.45;2.35;;;9.10;99.90;;;;;;5035712;28;20007;-82
2022/06/21 04:07:48;;;;;;;6.65;2.10;;;9.10;99.90;;;;;;5035541;28;20090;-81
2022/06/21 04:10:24;;;;;;;5.53;2.00;;;9.10;99.90;;;;;;5050922;28;20035;-82
2022/06/21 04:12:57;;;;;;;8.93;2.13;;;9.10;99.90;;;;;;5053160;28;20444;-81
2022/06/21 04:15:46;;;;;;;4.22;1.80;;;9.20;99.90;;;;;;5038393;28;20040;-82
2022/06/21 04:18:28;;;;;;;5.30;2.25;;;9.30;99.90;;;;;;5056651;28;20127;-82
2022/06/21 04:20:54;;;;;;;5.53;2.38;;;9.40;99.90;;;;;;5048974;28;20436;-82
2022/06/21 04:23:47;;;;;;;4.18;2.08;;;9.50;99.90;;;;;;5030109;28;20505;-81
2022/06/21 04:26:23;;;;;;;4.00;1.73;;;9.60;99.90;;;;;;5032113;28;20524;-82
2022/06/21 04:28:59;;;;;;;5.55;2.40;;;9.70;99.90;;;;;;5026042;28;20037;-82
2022/06/21 04:31:24;;;;;;;7.18;2.75;;;9.70;99.90;;;;;;5035579;28;20082;-82
2022/06/21 04:34:05;;;;;;;7.10;2.85;;;9.80;99.90;;;;;;5044799;28;20044;-82
2022/06/21 04:36:38;;;;;;;7.90;2.70;;;10.00;99.90;;;;;;5055728;28;20044;-82
2022/06/21 04:39:25;;;;;;;7.35;2.67;;;10.00;99.90;;;;;;5055250;28;20047;-82
2022/06/21 04:42:03;;;;;;;9.55;3.08;;;10.10;99.90;;;;;;5055549;28;20044;-82
2022/06/21 04:44:51;;;;;;;8.75;3.30;;;10.30;99.90;;;;;;5055165;28;20040;-82
2022/06/21 04:47:30;;;;;;;9.15;3.45;;;10.40;99.90;;;;;;5055324;28;20037;-82
2022/06/21 04:50:28;;;;;;;7.65;3.60;;;10.50;99.90;;;;;;5038256;28;20390;-82
2022/06/21 04:53:21;;;;;;;10.10;3.88;;;10.60;99.90;;;;;;5018130;28;20052;-82
2022/06/21 04:56:02;;;;;;;9.50;3.97;;;10.70;99.90;;;;;;5030655;28;20059;-82
2022/06/21 04:58:28;;;;;;;9.80;3.97;;;10.90;99.90;;;;;;5054484;28;20154;-82
2022/06/21 05:00:53;;;;;;;10.35;4.25;;;11.00;99.90;;;;;;5038426;28;20485;-82
2022/06/21 05:03:34;;;;;;;7.03;3.85;;;11.10;99.90;;;;;;5054985;28;20040;-82
2022/06/21 05:06:00;;;;;;;11.65;3.90;;;11.20;99.90;;;;;;5052304;28;20055;-81
2022/06/21 05:08:26;;;;;;;10.10;4.30;;;11.30;99.90;;;;;;5051645;28;20048;-82
2022/06/21 05:10:58;;;;;;;11.25;4.55;;;11.30;99.90;;;;;;5053451;28;20051;-82
2022/06/21 05:13:48;;;;;;;9.57;4.70;;;11.40;99.90;;;;;;5055172;28;20044;-82
2022/06/21 05:16:33;;;;;;;10.27;4.22;;;11.50;99.90;;;;;;5038135;28;20298;-81
2022/06/21 05:19:08;;;;;;;10.73;4.70;;;11.60;99.90;;;;;;5034359;28;20036;-82
2022/06/21 05:21:42;;;;;;;11.50;4.35;;;11.70;99.90;;;;;;5051157;28;20501;-82
2022/06/21 05:24:10;;;;;;;11.32;4.65;;;11.80;99.90;;;;;;5037762;28;20037;-82
2022/06/21 05:26:58;;;;;;;11.32;6.65;;;11.90;99.90;;;;;;5054688;28;20041;-82
2022/06/21 05:29:30;;;;;;;14.27;5.15;;;12.10;99.90;;;;;;5053894;28;20387;-83
2022/06/21 05:32:01;;;;;;;14.70;4.65;;;12.10;99.90;;;;;;5037877;28;20123;-83
2022/06/21 05:34:33;;;;;;;11.05;4.90;;;12.10;99.90;;;;;;5053721;28;20421;-83
2022/06/21 05:37:12;;;;;;;10.17;3.90;;;12.10;99.90;;;;;;5054736;28;20033;-82
2022/06/21 05:39:43;;;;;;;13.07;4.82;;;12.10;99.90;;;;;;5054255;28;20033;-82
2022/06/21 05:42:13;;;;;;;13.88;4.95;;;12.20;99.90;;;;;;5053499;28;20033;-82
2022/06/21 05:44:47;;;;;;;9.88;4.13;;;12.20;99.90;;;;;;5037608;28;20044;-82
2022/06/21 05:47:20;;;;;;;9.00;4.13;;;12.30;99.90;;;;;;5037848;28;20043;-82
2022/06/21 05:49:46;;;;;;;11.45;4.18;;;12.30;99.90;;;;;;5053423;28;20075;-82
2022/06/21 05:52:32;;;;;;;10.88;4.30;;;12.30;99.90;;;;;;5036985;28;20075;-83
2022/06/21 05:55:02;;;;;;;13.02;4.95;;;12.40;99.90;;;;;;5054270;28;20521;-83
2022/06/21 05:57:40;;;;;;;11.05;4.43;;;12.50;99.90;;;;;;5036956;28;20115;-82
2022/06/21 06:00:06;;;;;;;11.73;4.13;;;12.60;99.90;;;;;;5046313;28;20032;-83
2022/06/21 06:02:42;;;;;;;9.27;4.40;;;12.70;99.90;;;;;;5057333;28;20032;-83
2022/06/21 06:05:23;;;;;;;10.55;4.05;;;12.70;99.90;;;;;;5054979;28;20041;-82
2022/06/21 06:07:54;;;;;;;9.55;4.05;;;12.80;99.90;;;;;;5037850;28;20037;-82
2022/06/21 06:10:22;;;;;;;10.00;4.30;;;12.90;99.90;;;;;;5052305;28;20037;-83
2022/06/21 06:12:55;;;;;;;10.43;4.55;;;13.00;99.90;;;;;;5053621;28;20387;-83
2022/06/21 06:15:22;;;;;;;11.10;4.47;;;13.10;99.90;;;;;;5043978;28;20044;-83
2022/06/21 06:18:07;;;;;;;13.00;4.60;;;13.30;99.90;;;;;;5058076;28;20137;-83
2022/06/21 06:21:01;;;;;;;10.88;5.30;;;13.40;99.90;;;;;;5052883;28;20040;-83
2022/06/21 06:23:37;;;;;;;12.20;4.50;;;13.50;99.90;;;;;;5053183;28;20124;-83
2022/06/21 06:26:24;;;;;;;8.93;3.70;;;13.70;99.90;;;;;;5054296;28;20079;-83
2022/06/21 06:29:00;;;;;;;10.48;3.63;;;13.70;99.90;;;;;;5035976;28;20433;-83
2022/06/21 06:31:40;;;;;;;10.10;4.35;;;13.80;99.90;;;;;;5036457;28;20033;-83
2022/06/21 06:34:13;;;;;;;14.20;4.78;;;14.00;99.90;;;;;;5053580;28;20075;-83
2022/06/21 06:36:47;;;;;;;10.02;4.35;;;14.10;99.90;;;;;;5044498;28;20086;-82
2022/06/21 06:39:22;;;;;;;11.18;4.13;;;14.20;99.90;;;;;;5065776;28;20489;-83
2022/06/21 06:41:55;;;;;;;9.88;2.72;;;14.30;99.90;;;;;;5036066;28;20123;-83
2022/06/21 06:44:21;;;;;;;10.23;3.10;;;14.40;99.90;;;;;;5054055;28;20059;-84
2022/06/21 06:46:50;;;;;;;9.93;3.67;;;14.40;99.90;;;;;;5052465;28;20036;-83
2022/06/21 06:49:21;;;;;;;8.63;2.90;;;14.60;99.90;;;;;;5036130;28;20175;-83
2022/06/21 06:52:11;;;;;;;9.75;3.20;;;14.60;99.90;;;;;;5052387;28;20497;-84
2022/06/21 06:54:51;;;;;;;9.40;2.88;;;14.70;99.90;;;;;;5050469;28;20037;-84
2022/06/21 06:57:30;;;;;;;8.43;3.20;;;14.80;99.90;;;;;;5032386;28;20036;-83
2022/06/21 06:59:56;;;;;;;11.13;3.67;;;15.00;99.90;;;;;;5024443;28;20024;-84
2022/06/21 07:02:40;;;;;;;10.40;3.03;;;15.00;99.90;;;;;;5051831;28;20044;-83
2022/06/21 07:05:26;;;;;;;8.65;2.80;;;15.10;99.90;;;;;;5035360;28;20048;-84
2022/06/21 07:07:54;;;;;;;17.35;3.55;;;15.20;99.90;;;;;;5052276;28;20123;-83
2022/06/21 07:10:23;;;;;;;9.10;2.97;;;15.30;99.90;;;;;;5050948;28;20045;-84
2022/06/21 07:12:51;;;;;;;12.30;2.72;;;15.40;99.90;;;;;;5035640;28;20041;-84
2022/06/21 07:15:19;;;;;;;9.02;2.60;;;15.40;99.90;;;;;;5052349;28;20044;-84
2022/06/21 07:17:55;;;;;;;9.88;2.50;;;15.40;99.90;;;;;;5052476;28;20040;-84
2022/06/21 07:20:25;;;;;;;7.28;2.40;;;15.40;99.90;;;;;;5034693;28;20052;-84
2022/06/21 07:22:55;;;;;;;7.95;2.08;;;15.40;99.90;;;;;;5048773;28;20043;-84
2022/06/21 07:25:45;;;;;;;12.43;2.67;;;15.40;99.90;;;;;;5026672;28;20071;-84
2022/06/21 07:28:20;;;;;;;8.23;2.30;;;15.40;99.90;;;;;;5027354;28;20037;-84
2022/06/21 07:30:49;;;;;;;8.82;2.28;;;15.40;99.90;;;;;;5051994;28;20079;-83
2022/06/21 07:33:58;;;;;;;10.93;2.47;;;15.40;99.90;;;;;;5051702;28;20673;-83
2022/06/21 07:36:56;;;;;;;9.30;2.45;;;15.40;99.90;;;;;;5020245;28;20053;-83
2022/06/21 07:39:33;;;;;;;9.55;2.38;;;15.40;99.90;;;;;;5033974;28;20044;-84
2022/06/21 07:42:14;;;;;;;8.52;2.25;;;15.30;99.90;;;;;;5051609;28;20040;-83
2022/06/21 07:45:01;;;;;;;7.47;2.10;;;15.30;99.90;;;;;;5052419;28;20055;-83
2022/06/21 07:47:41;;;;;;;8.75;2.20;;;15.30;99.90;;;;;;5052496;28;20799;-83
2022/06/21 07:50:21;;;;;;;10.85;2.13;;;15.30;99.90;;;;;;5055988;28;20060;-83
2022/06/21 07:53:13;;;;;;;6.00;2.40;;;15.50;99.90;;;;;;5054241;28;20052;-83
2022/06/21 07:55:45;;;;;;;10.43;2.45;;;15.60;99.90;;;;;;5039177;28;20040;-84
2022/06/21 07:58:12;;;;;;;10.30;2.55;;;15.70;99.90;;;;;;5039326;28;20037;-84
2022/06/21 08:09:27;;;;;;;9.27;2.30;;;16.10;99.90;;;;;;5056065;28;20044;-84
2022/06/21 08:12:00;;;;;;;7.93;2.05;;;16.20;99.90;;;;;;5054239;28;20045;-84
2022/06/21 08:14:28;;;;;;;8.73;2.28;;;16.20;99.90;;;;;;5068663;28;20505;-84
2022/06/21 08:17:03;;;;;;;18.40;2.72;;;16.20;99.90;;;;;;5050948;28;20532;-84
2022/06/21 08:19:42;;;;;;;10.73;2.35;;;16.30;99.90;;;;;;5052014;28;20036;-84
2022/06/21 08:22:17;;;;;;;6.82;1.90;;;16.50;99.90;;;;;;5035589;28;20071;-84
2022/06/21 08:24:52;;;;;;;6.55;1.70;;;16.50;99.90;;;;;;5053486;28;20051;-84
2022/06/21 08:27:40;;;;;;;9.90;2.45;;;16.60;99.90;;;;;;5055616;28;20045;-84
2022/06/21 08:30:38;;;;;;;12.35;2.50;;;16.80;99.90;;;;;;5054332;28;20048;-84
2022/06/21 08:33:11;;;;;;;9.70;2.60;;;16.80;99.90;;;;;;5037549;28;20056;-84
2022/06/21 08:35:48;;;;;;;7.72;2.20;;;16.90;99.90;;;;;;5053929;28;20044;-84
2022/06/21 08:38:37;;;;;;;8.25;1.95;;;16.80;99.90;;;;;;5038255;28;20429;-84
2022/06/21 08:44:37;;;;;;;7.75;1.88;;;17.00;99.90;;;;;;5055045;28;20494;-84
2022/06/21 08:47:46;;;;;;;5.60;1.45;;;17.00;99.90;;;;;;5032747;28;20040;-84
2022/06/21 08:50:40;;;;;;;9.25;2.00;;;17.00;99.90;;;;;;5029240;28;20071;-84
2022/06/21 08:53:33;;;;;;;9.23;2.38;;;17.10;99.90;;;;;;5038219;28;20040;-84
2022/06/21 08:56:24;;;;;;;6.47;2.00;;;17.20;99.90;;;;;;5054271;28;20036;-84
2022/06/21 08:59:09;;;;;;;9.73;1.90;;;17.30;99.90;;;;;;5047063;28;20624;-84
2022/06/21 09:01:51;;;;;;;6.95;1.98;;;17.40;99.90;;;;;;5054157;28;20032;-85
2022/06/21 09:04:29;;;;;;;9.65;1.85;;;17.40;99.90;;;;;;5053059;28;20045;-84
2022/06/21 09:07:30;;;;;;;6.35;1.70;;;17.50;99.90;;;;;;5055190;28;20076;-84
2022/06/21 09:10:32;;;;;;;12.00;2.80;;;17.60;99.90;;;;;;5053551;28;20111;-85
2022/06/21 09:13:07;;;;;;;7.28;1.67;;;17.70;99.90;;;;;;5054261;28;20089;-84
2022/06/21 09:15:38;;;;;;;8.48;1.92;;;17.80;99.90;;;;;;5054515;28;20047;-84
2022/06/21 09:18:56;;;;;;;7.82;2.05;;;17.90;99.90;;;;;;5052968;28;20041;-85
2022/06/21 09:21:25;;;;;;;9.98;2.10;;;17.90;99.90;;;;;;4954277;28;20035;-84
2022/06/21 09:24:04;;;;;;;8.27;1.67;;;17.90;99.90;;;;;;4956213;28;20046;-84
2022/06/21 09:26:58;;;;;;;6.85;1.88;;;18.00;99.90;;;;;;5028687;28;20087;-84
2022/06/21 09:29:34;;;;;;;9.10;2.13;;;18.10;99.90;;;;;;5037461;28;20379;-84
2022/06/21 09:32:05;;;;;;;7.78;1.63;;;18.20;99.90;;;;;;5053216;28;20033;-84
2022/06/21 09:35:09;;;;;;;8.23;2.10;;;18.30;99.90;;;;;;5053399;28;20037;-85
2022/06/21 09:37:49;;;;;;;7.93;1.95;;;18.30;99.90;;;;;;5018844;28;20048;-84
2022/06/21 09:40:30;;;;;;;7.43;2.28;;;18.40;99.90;;;;;;5052183;28;20123;-85
2022/06/21 09:43:28;;;;;;;8.25;1.90;;;18.40;99.90;;;;;;5050189;28;20045;-84
2022/06/21 09:46:07;;;;;;;7.38;1.85;;;18.50;99.90;;;;;;5070204;28;20067;-85
2022/06/21 09:49:00;;;;;;;7.28;1.75;;;18.50;99.90;;;;;;5054399;28;20051;-85
2022/06/21 09:52:03;;;;;;;7.07;1.70;;;18.60;99.90;;;;;;5052753;28;20040;-84
2022/06/21 09:54:35;;;;;;;9.10;1.80;;;18.60;99.90;;;;;;5053882;28;20049;-85
2022/06/21 09:57:16;;;;;;;8.23;2.35;;;18.60;99.90;;;;;;5036431;28;20115;-85
2022/06/21 10:00:19;;;;;;;6.85;1.80;;;18.70;99.90;;;;;;5036674;28;20028;-84
2022/06/21 10:03:10;;;;;;;;;;;18.80;99.90;;;;;;5049274;28;20064;-84
2022/06/21 10:05:39;;;;;;;6.80;1.95;;;18.80;99.90;;;;;;5053894;28;19920;-85
2022/06/21 10:08:18;;;;;;;7.10;1.77;;;18.90;99.90;;;;;;5035956;28;20044;-84
2022/06/21 10:11:09;;;;;;;7.30;2.17;;;19.10;99.90;;;;;;5052568;28;20517;-85
2022/06/21 10:14:08;;;;;;;8.35;1.90;;;19.10;99.90;;;;;;5035463;28;20036;-85
2022/06/21 10:16:52;;;;;;;7.38;2.00;;;19.20;99.90;;;;;;5036901;28;20036;-85
2022/06/21 10:19:40;;;;;;;7.07;2.20;;;19.30;99.90;;;;;;5035646;28;20033;-85
2022/06/21 10:22:39;;;;;;;10.35;2.25;;;19.40;99.90;;;;;;5052289;28;20040;-85
2022/06/21 10:25:22;;;;;;;7.82;1.80;;;19.50;99.90;;;;;;5052621;28;20440;-85
2022/06/21 10:28:26;;;;;;;9.18;2.03;;;19.50;99.90;;;;;;5053343;28;20477;-84
2022/06/21 10:30:58;;;;;;;7.75;1.88;;;19.50;99.10;;;;;;5050848;28;20053;-84
2022/06/21 10:34:01;;;;;;;6.97;1.80;;;19.50;98.90;;;;;;5054148;28;20047;-85
2022/06/21 10:36:33;;;;;;;8.05;1.92;;;19.60;99.90;;;;;;5058008;28;20047;-84
2022/06/21 10:39:01;;;;;;;;;;;19.70;99.70;;;;;;5051677;28;20561;-84
2022/06/21 10:42:46;;;;;;;10.13;2.35;;;19.70;99.90;;;;;;5036367;28;19931;-85
2022/06/21 10:44:38;;;;;;;7.82;2.10;;;19.70;99.70;;;;;;5052864;28;20123;-85
2022/06/21 10:47:10;;;;;;;6.75;1.70;;;19.80;99.00;;;;;;5036245;28;20041;-84
2022/06/21 10:49:45;;;;;;;;;;;19.90;98.10;;;;;;5053756;28;20044;-84
2022/06/21 10:52:56;;;;;;;8.40;2.00;;;19.90;99.40;;;;;;5052352;28;19920;-85
2022/06/21 10:55:44;;;;;;;7.78;1.80;;;20.10;99.90;;;;;;5052925;28;20051;-85
2022/06/21 10:58:24;;;;;;;7.85;2.03;;;20.20;98.40;;;;;;5052574;28;20043;-85
2022/06/21 11:04:12;;;;;;;6.18;1.52;;;20.30;94.80;;;;;;5051451;28;20044;-85
2022/06/21 11:06:51;;;;;;;7.13;1.85;;;20.40;93.00;;;;;;5053285;28;20120;-85
2022/06/21 11:09:28;;;;;;;12.23;2.10;;;20.40;94.60;;;;;;5052176;28;20200;-84
2022/06/21 11:11:59;;;;;;;7.88;2.30;;;20.60;93.10;;;;;;5051953;28;20040;-84
2022/06/21 11:14:43;;;;;;;6.93;1.67;;;20.60;94.40;;;;;;5052826;28;20497;-85
2022/06/21 11:17:34;;;;;;;7.55;1.80;;;20.80;92.20;;;;;;5035684;28;20110;-85
2022/06/21 11:20:11;;;;;;;7.28;2.10;;;20.90;91.10;;;;;;5052761;28;20111;-85
2022/06/21 11:22:45;;;;;;;6.20;1.88;;;21.10;92.30;;;;;;5050803;28;20484;-85
2022/06/21 11:25:26;;;;;;;6.13;1.52;;;21.30;93.10;;;;;;5035866;28;20094;-85
2022/06/21 11:28:05;;;;;;;7.18;1.60;;;21.40;88.80;;;;;;5052353;28;20178;-85
2022/06/21 11:30:54;;;;;;;6.00;1.95;;;21.50;85.60;;;;;;5035938;28;20076;-85
2022/06/21 11:33:36;;;;;;;6.53;1.90;;;21.50;85.60;;;;;;5056763;28;20123;-85
2022/06/21 11:36:29;;;;;;;7.97;2.13;;;21.60;81.70;;;;;;5053182;28;20037;-85
2022/06/21 11:39:32;;;;;;;8.40;2.50;;;21.70;83.90;;;;;;5052185;28;20119;-85
2022/06/21 11:42:33;;;;;;;7.30;2.20;;;21.90;82.50;;;;;;5052440;28;20041;-85
2022/06/21 11:45:08;;;;;;;7.03;1.75;;;22.10;79.80;;;;;;5047182;28;20051;-85
2022/06/21 11:47:53;;;;;;;7.43;1.83;;;22.10;75.30;;;;;;5035068;28;20080;-85
2022/06/21 11:50:19;;;;;;;6.40;1.48;;;22.20;80.70;;;;;;5051375;28;20040;-85
2022/06/21 11:52:56;;;;;;;7.30;1.65;;;22.30;69.80;;;;;;5051332;28;20040;-85
2022/06/21 11:55:41;;;;;;;5.70;1.25;;;22.40;73.40;;;;;;5035098;28;20045;-85
2022/06/21 11:58:21;;;;;;;6.00;1.45;;;22.60;73.80;;;;;;5052573;28;20128;-85
2022/06/21 12:00:52;;;;;;;6.10;1.50;;;22.80;71.90;;;;;;5050786;28;20040;-86
2022/06/21 12:03:26;;;;;;;5.07;1.40;;;22.90;67.60;;;;;;5051965;28;20044;-85
2022/06/21 12:05:56;;;;;;;6.45;1.60;;;23.10;64.90;;;;;;5051332;28;20063;-85
2022/06/21 12:08:39;;;;;;;5.15;1.13;;;23.20;61.80;;;;;;5051986;28;20098;-85
2022/06/21 12:11:18;;;;;;;4.80;1.00;;;23.10;59.50;;;;;;5050878;28;20047;-84
2022/06/21 12:14:11;;;;;;;4.90;1.05;;;23.00;59.40;;;;;;5051386;28;20040;-85
2022/06/21 12:16:52;;;;;;;4.45;1.10;;;23.00;58.40;;;;;;5052216;28;20486;-84
2022/06/21 12:19:23;;;;;;;4.45;1.02;;;22.90;58.90;;;;;;5050106;28;20045;-83
2022/06/21 12:22:19;;;;;;;4.22;1.20;;;22.90;58.30;;;;;;5050589;28;20067;-85
2022/06/21 12:24:45;;;;;;;6.63;1.38;;;22.80;57.50;;;;;;4987872;28;20192;-85
2022/06/21 12:27:11;;;;;;;5.05;1.20;;;22.70;58.20;;;;;;4991335;28;20117;-84
2022/06/21 12:29:37;;;;;;;4.60;1.20;;;22.60;57.30;;;;;;4974453;28;20046;-85
2022/06/21 12:32:06;;;;;;;7.03;1.65;;;22.60;57.00;;;;;;4985780;28;20529;-83
2022/06/21 12:34:43;;;;;;;5.22;1.20;;;22.60;57.80;;;;;;4992636;28;20034;-84
2022/06/21 12:37:11;;;;;;;6.88;1.40;;;22.60;56.70;;;;;;4994370;28;20042;-85
2022/06/21 12:39:49;;;;;;;5.32;1.10;;;22.60;58.20;;;;;;4980138;28;20306;-85
2022/06/21 12:42:45;;;;;;;5.70;1.38;;;22.60;58.20;;;;;;4998073;28;20074;-85
2022/06/21 12:45:13;;;;;;;3.95;1.10;;;22.70;60.90;;;;;;5011334;28;20088;-85
2022/06/21 12:47:56;;;;;;;5.80;1.40;;;22.70;59.40;;;;;;4977503;28;20109;-85
2022/06/21 12:50:36;;;;;;;11.35;1.85;;;22.70;57.90;;;;;;4998288;28;20050;-85
2022/06/21 12:53:13;;;;;;;6.72;1.33;;;22.70;58.70;;;;;;4958179;28;20046;-85
2022/06/21 12:56:04;;;;;;;4.60;1.00;;;22.80;58.30;;;;;;4980898;28;20042;-85
2022/06/21 12:58:38;;;;;;;5.20;1.20;;;22.80;58.90;;;;;;5014138;28;20122;-85
2022/06/21 13:01:25;;;;;;;6.03;1.27;;;22.90;59.70;;;;;;5008848;28;20045;-85
2022/06/21 13:04:28;;;;;;;4.57;1.20;;;23.00;59.70;;;;;;5054184;28;20041;-86
2022/06/21 13:07:34;;;;;;;5.28;1.38;;;23.10;58.40;;;;;;5054423;28;20112;-85
2022/06/21 13:10:06;;;;;;;2.55;0.90;;;23.20;60.10;;;;;;5072270;28;20049;-85
2022/06/21 13:13:01;;;;;;;7.82;1.27;;;23.10;57.50;;;;;;5053989;28;20811;-85
2022/06/21 13:15:45;;;;;;;4.30;1.10;;;23.00;58.20;;;;;;5037436;28;20453;-86
2022/06/21 13:18:18;;;;;;;4.60;1.27;;;23.00;59.60;;;;;;5030288;28;20051;-85
2022/06/21 13:21:02;;;;;;;7.22;1.50;;;23.10;60.00;;;;;;5054092;28;20508;-85
2022/06/21 13:23:52;;;;;;;6.22;1.20;;;23.20;60.00;;;;;;5036673;28;20044;-85
2022/06/21 13:26:36;;;;;;;6.35;1.27;;;23.20;59.60;;;;;;5054094;28;20040;-85
2022/06/21 13:29:18;;;;;;;5.03;1.30;;;23.00;57.60;;;;;;5045795;28;20135;-84
2022/06/21 13:31:49;;;;;;;5.82;1.20;;;23.00;56.80;;;;;;5054280;28;20044;-85
2022/06/21 13:34:36;;;;;;;5.93;1.20;;;22.90;58.30;;;;;;5036019;28;20039;-85
2022/06/21 13:37:17;;;;;;;7.78;1.35;;;22.90;58.40;;;;;;5037829;28;20058;-84
2022/06/21 13:39:51;;;;;;;5.10;1.15;;;23.00;59.10;;;;;;5059847;28;20777;-84
2022/06/21 13:42:38;;;;;;;8.38;1.38;;;23.00;58.10;;;;;;5039504;28;20029;-85
2022/06/21 13:45:12;;;;;;;7.93;1.33;;;23.10;58.50;;;;;;5050194;28;20513;-84
2022/06/21 13:47:59;;;;;;;5.82;1.40;;;23.10;56.60;;;;;;5054355;28;20048;-85
2022/06/21 13:50:28;;;;;;;6.45;1.35;;;23.10;57.80;;;;;;5052561;28;20079;-84
2022/06/21 13:53:17;;;;;;;7.65;1.45;;;23.10;57.00;;;;;;5036848;28;20497;-85
2022/06/21 13:55:43;;;;;;;6.60;1.50;;;23.20;59.20;;;;;;5070586;28;20056;-84
2022/06/21 13:58:34;;;;;;;4.30;1.13;;;23.30;60.10;;;;;;5063948;28;20029;-84
2022/06/21 14:01:22;;;;;;;7.75;1.30;;;23.60;62.10;;;;;;5050147;28;20032;-85
2022/06/21 14:04:02;;;;;;;6.82;1.17;;;23.80;62.10;;;;;;5019178;28;20048;-85